UUEE/SVO METAR and TAF weather

Enter ICAO airport designator
Station Type Date Time Source
UUEE METAR 2021/05/16 00:00 UTC NOAA

UUEE 160000Z 18003MPS CAVOK 13/10 Q1009 R24C/CLRD62 R24R/CLRD62 NOSIG


Station Type Date Time Source
UUEE Decoded METAR 2021/05/16 00:00 UTC NOAA

Moscow / Sheremet'Ye , Russia (UUEE) 55-59N 037-30E
May 15, 2021 - 08:00 PM EDT / 2021.05.16 0000 UTC
Wind: from the S (180 degrees) at 7 MPH (6 KT):0
Visibility: greater than 7 mile(s):0
Temperature: 55 F (13 C)
Dew Point: 50 F (10 C)
Relative Humidity: 81%
Pressure (altimeter): 29.80 in. Hg (1009 hPa)
ob: UUEE 160000Z 18003MPS CAVOK 13/10 Q1009 R24C/CLRD62 R24R/CLRD62 NOSIG
cycle: 0

Station Type Date Time Source
UUEE TAF 2021/05/15 21:21 UTC NOAA

TAF UUEE 151958Z 1521/1621 18003G08MPS 9999 SCT040 TX22/1612Z TN13/1602Z
TEMPO 1609/1615 24009G14MPS 2100 -TSRA BKN020CB

Example: see airport list